createdAt,value
2019-02-21T00:01:35.342Z,101420.84
2019-02-21T00:04:04.399Z,101420.27
2019-02-21T00:06:32.950Z,101429.09
2019-02-21T00:09:01.616Z,101424.62
2019-02-21T00:11:30.259Z,101434.22
2019-02-21T00:13:58.761Z,101438.84
2019-02-21T00:16:27.674Z,101435.89
2019-02-21T00:18:56.137Z,101436.12
2019-02-21T00:21:24.688Z,101433.66
2019-02-21T00:23:53.204Z,101436.14
2019-02-21T00:26:21.859Z,101432.98
2019-02-21T00:28:50.346Z,101422.84
2019-02-21T00:31:18.949Z,101430.73
2019-02-21T00:33:47.444Z,101430.67
2019-02-21T00:36:16.050Z,101428.02
2019-02-21T00:38:44.689Z,101426.72
2019-02-21T00:41:13.209Z,101438.03
2019-02-21T00:43:41.907Z,101433.91
2019-02-21T00:46:10.519Z,101428.59
2019-02-21T00:48:39.052Z,101428.45
2019-02-21T00:51:07.553Z,101432.05
2019-02-21T00:53:36.032Z,101428.21
2019-02-21T00:56:04.557Z,101425.77
2019-02-21T00:58:33.445Z,101433.52
2019-02-21T01:01:01.927Z,101435.88
2019-02-21T01:03:30.377Z,101440.92
2019-02-21T01:05:58.949Z,101433.56
2019-02-21T01:08:27.467Z,101432.80
2019-02-21T01:10:55.948Z,101430.16
2019-02-21T01:13:24.406Z,101431.05
2019-02-21T01:15:52.880Z,101438.51
2019-02-21T01:18:21.522Z,101436.77
2019-02-21T01:20:49.978Z,101437.41
2019-02-21T01:23:18.431Z,101442.55
2019-02-21T01:25:46.903Z,101444.10
2019-02-21T01:28:15.440Z,101443.94
2019-02-21T01:30:44.002Z,101455.20
2019-02-21T01:33:12.550Z,101451.06
2019-02-21T01:35:41.044Z,101453.06
2019-02-21T01:38:09.520Z,101452.41
2019-02-21T01:40:38.145Z,101456.55
2019-02-21T01:43:06.709Z,101466.45
2019-02-21T01:45:35.380Z,101455.55
2019-02-21T01:48:04.075Z,101454.42
2019-02-21T01:50:32.631Z,101455.92
2019-02-21T01:53:01.382Z,101456.09
2019-02-21T01:55:29.860Z,101461.77
2019-02-21T01:57:58.308Z,101458.77
2019-02-21T02:00:27.066Z,101456.30
2019-02-21T02:02:55.614Z,101466.56
2019-02-21T02:05:24.133Z,101464.44
2019-02-21T02:07:52.651Z,101474.22
2019-02-21T02:10:21.249Z,101475.19
2019-02-21T02:12:49.711Z,101471.31
2019-02-21T02:15:18.381Z,101478.91
2019-02-21T02:17:46.945Z,101479.42
2019-02-21T02:20:15.428Z,101474.23
2019-02-21T02:22:44.118Z,101480.48
2019-02-21T02:25:12.632Z,101485.39
2019-02-21T02:27:41.080Z,101476.72
2019-02-21T02:30:10.758Z,101476.75
2019-02-21T02:32:39.226Z,101476.75
2019-02-21T02:35:08.035Z,101473.13
2019-02-21T02:37:36.844Z,101475.65
2019-02-21T02:40:06.375Z,101473.36
2019-02-21T02:42:34.906Z,101474.52
2019-02-21T02:45:03.515Z,101482.25
2019-02-21T02:47:32.062Z,101481.64
2019-02-21T02:50:00.617Z,101475.62
2019-02-21T02:52:29.100Z,101477.06
2019-02-21T02:54:57.553Z,101471.74
2019-02-21T02:57:26.017Z,101478.16
2019-02-21T02:59:54.688Z,101470.13
2019-02-21T03:02:23.165Z,101484.53
2019-02-21T03:04:51.683Z,101477.47
2019-02-21T03:07:20.186Z,101476.98
2019-02-21T03:09:48.732Z,101483.58
2019-02-21T03:12:17.211Z,101478.98
2019-02-21T03:14:45.705Z,101480.69
2019-02-21T03:17:14.382Z,101485.75
2019-02-21T03:19:42.875Z,101478.55
2019-02-21T03:22:11.511Z,101481.50
2019-02-21T03:24:40.029Z,101483.16
2019-02-21T03:27:08.484Z,101478.69
2019-02-21T03:29:37.059Z,101484.00
2019-02-21T03:32:05.525Z,101477.36
2019-02-21T03:34:33.982Z,101475.99
2019-02-21T03:37:02.516Z,101481.68
2019-02-21T03:39:31.043Z,101480.84
2019-02-21T03:41:59.574Z,101482.88
2019-02-21T03:44:28.110Z,101477.13
2019-02-21T03:46:56.586Z,101483.63
2019-02-21T03:49:25.143Z,101482.60
2019-02-21T03:51:53.665Z,101479.75
2019-02-21T03:54:22.204Z,101477.84
2019-02-21T03:56:50.764Z,101474.41
2019-02-21T03:59:19.480Z,101468.31
2019-02-21T04:01:48.099Z,101473.87
2019-02-21T04:04:16.654Z,101470.02
2019-02-21T04:06:45.289Z,101471.55
2019-02-21T04:09:13.765Z,101477.06
2019-02-21T04:11:42.289Z,101463.24
2019-02-21T04:14:10.963Z,101474.52
2019-02-21T04:16:39.585Z,101476.20
2019-02-21T04:19:08.170Z,101476.56
2019-02-21T04:21:36.702Z,101472.95
2019-02-21T04:24:05.390Z,101465.42
2019-02-21T04:26:33.919Z,101470.28
2019-02-21T04:29:02.452Z,101460.51
2019-02-21T04:31:30.938Z,101461.77
2019-02-21T04:33:59.388Z,101457.75
2019-02-21T04:36:27.944Z,101455.81
2019-02-21T04:38:56.482Z,101449.45
2019-02-21T04:41:25.096Z,101451.30
2019-02-21T04:43:53.573Z,101448.42
2019-02-21T04:46:22.095Z,101453.48
2019-02-21T04:48:50.605Z,101455.90
2019-02-21T04:51:19.073Z,101450.25
2019-02-21T04:53:48.233Z,101452.38
2019-02-21T04:56:16.693Z,101449.92
2019-02-21T04:58:45.172Z,101451.83
2019-02-21T05:01:13.736Z,101457.63
2019-02-21T05:03:42.188Z,101451.19
2019-02-21T05:06:10.796Z,101448.43
2019-02-21T05:08:39.293Z,101451.80
2019-02-21T05:11:07.750Z,101454.88
2019-02-21T05:13:36.235Z,101453.13
2019-02-21T05:16:04.768Z,101449.34
2019-02-21T05:18:33.397Z,101448.20
2019-02-21T05:21:01.916Z,101455.84
2019-02-21T05:23:30.393Z,101459.55
2019-02-21T05:25:58.847Z,101456.15
2019-02-21T05:28:29.644Z,101455.01
2019-02-21T05:30:59.749Z,101453.38
2019-02-21T05:33:35.988Z,101447.39
2019-02-21T05:36:09.277Z,101448.82
2019-02-21T05:38:42.450Z,101461.38
2019-02-21T05:41:21.834Z,101447.89
2019-02-21T05:44:08.486Z,101447.66
2019-02-21T05:46:57.058Z,101463.77
2019-02-21T05:49:29.907Z,101455.64
2019-02-21T05:52:00.219Z,101462.06
2019-02-21T05:54:30.321Z,101461.88
2019-02-21T05:57:15.974Z,101458.73
2019-02-21T05:59:57.903Z,101472.88
2019-02-21T06:02:53.173Z,101477.98
2019-02-21T06:05:16.290Z,101477.28
2019-02-21T06:08:02.712Z,101470.87
2019-02-21T06:10:38.718Z,101469.33
2019-02-21T06:13:17.581Z,101462.88
2019-02-21T06:15:47.750Z,101463.48
2019-02-21T06:18:32.840Z,101476.36
2019-02-21T06:21:08.659Z,101479.45
2019-02-21T06:23:50.624Z,101479.48
2019-02-21T06:26:23.823Z,101478.30
2019-02-21T06:28:54.011Z,101476.13
2019-02-21T06:31:22.556Z,101480.61
2019-02-21T06:33:51.084Z,101482.13
2019-02-21T06:36:19.577Z,101490.20
2019-02-21T06:38:48.125Z,101483.77
2019-02-21T06:41:16.588Z,101480.41
2019-02-21T06:43:45.057Z,101486.80
2019-02-21T06:46:13.993Z,101490.50
2019-02-21T06:48:42.532Z,101496.40
2019-02-21T06:51:11.150Z,101493.44
2019-02-21T06:53:39.735Z,101493.00
2019-02-21T06:56:08.382Z,101500.11
2019-02-21T06:58:37.275Z,101496.03
2019-02-21T07:01:05.758Z,101494.18
2019-02-21T07:03:34.579Z,101499.38
2019-02-21T07:06:03.088Z,101498.29
2019-02-21T07:08:31.540Z,101493.86
2019-02-21T07:11:06.323Z,101493.23
2019-02-21T07:13:30.217Z,101497.89
2019-02-21T07:15:58.749Z,101500.26
2019-02-21T07:18:28.924Z,101502.23
2019-02-21T07:20:57.673Z,101505.88
2019-02-21T07:23:27.208Z,101508.23
2019-02-21T07:25:57.080Z,101510.92
2019-02-21T07:28:27.739Z,101506.20
2019-02-21T07:30:55.825Z,101505.92
2019-02-21T07:33:28.291Z,101515.25
2019-02-21T07:35:54.937Z,101520.66
2019-02-21T07:38:23.885Z,101515.98
2019-02-21T07:40:52.423Z,101519.22
2019-02-21T07:43:20.913Z,101524.59
2019-02-21T07:45:49.380Z,101523.70
2019-02-21T07:48:17.884Z,101527.77
2019-02-21T07:50:46.406Z,101527.63
2019-02-21T07:53:15.072Z,101533.96
2019-02-21T07:55:43.703Z,101533.77
2019-02-21T07:58:12.184Z,101540.62
2019-02-21T08:00:40.705Z,101537.64
2019-02-21T08:03:09.384Z,101524.56
2019-02-21T08:05:37.984Z,101523.07
2019-02-21T08:08:09.199Z,101532.68
2019-02-21T08:10:36.904Z,101535.77
2019-02-21T08:13:05.569Z,101539.61
2019-02-21T08:15:34.110Z,101533.40
2019-02-21T08:18:02.596Z,101542.72
2019-02-21T08:20:35.508Z,101553.64
2019-02-21T08:23:03.048Z,101564.77
2019-02-21T08:25:31.952Z,101561.16
2019-02-21T08:28:00.752Z,101571.14
2019-02-21T08:30:29.666Z,101568.34
2019-02-21T08:33:08.735Z,101568.64
2019-02-21T08:35:37.372Z,101567.17
2019-02-21T08:38:06.266Z,101557.69
2019-02-21T08:40:34.790Z,101560.36
2019-02-21T08:43:04.166Z,101568.30
2019-02-21T08:45:33.091Z,101555.41
2019-02-21T08:48:01.567Z,101558.69
2019-02-21T08:50:30.181Z,101559.49
2019-02-21T08:53:00.921Z,101551.68
2019-02-21T08:55:28.960Z,101556.45
2019-02-21T08:57:57.744Z,101561.27
2019-02-21T09:00:26.371Z,101561.19
2019-02-21T09:02:54.989Z,101557.09
2019-02-21T09:05:23.903Z,101562.66
2019-02-21T09:07:52.511Z,101570.81
2019-02-21T09:10:21.072Z,101575.77
2019-02-21T09:12:49.549Z,101575.11
2019-02-21T09:15:18.058Z,101577.05
2019-02-21T09:17:46.594Z,101576.28
2019-02-21T09:20:15.853Z,101575.74
2019-02-21T09:22:44.369Z,101576.79
2019-02-21T09:25:13.984Z,101573.36
2019-02-21T09:27:42.727Z,101583.95
2019-02-21T09:30:18.730Z,101585.51
2019-02-21T09:32:47.417Z,101592.23
2019-02-21T09:35:15.974Z,101594.13
2019-02-21T09:37:44.923Z,101597.49
2019-02-21T09:40:14.856Z,101604.55
2019-02-21T09:42:43.434Z,101600.64
2019-02-21T09:45:19.158Z,101598.15
2019-02-21T09:47:47.840Z,101602.92
2019-02-21T09:50:16.323Z,101612.69
2019-02-21T09:52:44.902Z,101607.92
2019-02-21T09:55:18.167Z,101609.19
2019-02-21T09:57:46.818Z,101609.08
2019-02-21T10:00:19.774Z,101614.62
2019-02-21T10:02:48.292Z,101617.08
2019-02-21T10:05:17.023Z,101615.85
2019-02-21T10:07:45.481Z,101619.03
2019-02-21T10:10:15.801Z,101619.03
2019-02-21T10:12:44.427Z,101630.27
2019-02-21T10:15:16.879Z,101631.30
2019-02-21T10:17:45.467Z,101631.84
2019-02-21T10:20:17.067Z,101624.20
2019-02-21T10:22:45.597Z,101620.47
2019-02-21T10:25:22.943Z,101627.30
2019-02-21T10:27:50.575Z,101620.97
2019-02-21T10:30:21.002Z,101628.59
2019-02-21T10:32:49.590Z,101628.66
2019-02-21T10:35:18.268Z,101623.52
2019-02-21T10:37:46.902Z,101621.42
2019-02-21T10:40:16.393Z,101619.48
2019-02-21T10:42:44.944Z,101617.45
2019-02-21T10:45:15.419Z,101615.39
2019-02-21T10:47:44.082Z,101615.54
2019-02-21T10:50:15.597Z,101618.34
2019-02-21T10:52:44.250Z,101611.14
2019-02-21T10:55:13.486Z,101613.36
2019-02-21T10:57:42.257Z,101606.33
2019-02-21T11:00:17.073Z,101616.00
2019-02-21T11:02:45.893Z,101593.59
2019-02-21T11:05:14.504Z,101587.95
2019-02-21T11:07:42.991Z,101588.16
2019-02-21T11:10:13.819Z,101581.86
2019-02-21T11:12:42.411Z,101587.80
2019-02-21T11:15:13.516Z,101589.98
2019-02-21T11:17:42.005Z,101589.25
2019-02-21T11:20:13.172Z,101591.44
2019-02-21T11:22:41.682Z,101581.94
2019-02-21T11:25:11.827Z,101587.81
2019-02-21T11:27:40.563Z,101592.30
2019-02-21T11:30:17.610Z,101588.93
2019-02-21T11:32:46.344Z,101594.09
2019-02-21T11:35:15.299Z,101588.61
2019-02-21T11:37:46.815Z,101588.06
2019-02-21T11:40:18.134Z,101591.94
2019-02-21T11:42:47.417Z,101590.55
2019-02-21T11:45:17.516Z,101588.64
2019-02-21T11:47:46.129Z,101588.45
2019-02-21T11:50:16.625Z,101586.63
2019-02-21T11:52:45.437Z,101579.67
2019-02-21T11:55:16.964Z,101589.70
2019-02-21T11:57:45.729Z,101584.31
2019-02-21T12:00:20.281Z,101577.99
2019-02-21T12:02:48.881Z,101579.64
2019-02-21T12:05:27.888Z,101573.73
2019-02-21T12:07:48.107Z,101573.23
2019-02-21T12:10:17.200Z,101554.89
2019-02-21T12:12:46.206Z,101556.19
2019-02-21T12:15:16.010Z,101564.43
2019-02-21T12:17:44.557Z,101556.71
2019-02-21T12:20:17.877Z,101555.25
2019-02-21T12:22:46.430Z,101550.32
2019-02-21T12:25:20.932Z,101551.08
2019-02-21T12:27:49.385Z,101548.73
2019-02-21T12:30:21.718Z,101553.27
2019-02-21T12:32:50.248Z,101555.95
2019-02-21T12:35:29.290Z,101549.48
2019-02-21T12:37:49.369Z,101556.81
2019-02-21T12:40:20.413Z,101551.81
2019-02-21T12:42:49.024Z,101564.05
2019-02-21T12:45:22.317Z,101543.72
2019-02-21T12:47:53.763Z,101553.64
2019-02-21T12:50:21.475Z,101547.28
2019-02-21T12:52:50.126Z,101552.89
2019-02-21T12:55:27.266Z,101554.34
2019-02-21T12:57:48.924Z,101555.84
2019-02-21T13:00:22.388Z,101558.67
2019-02-21T13:02:50.858Z,101561.38
2019-02-21T13:05:19.471Z,101572.38
2019-02-21T13:07:47.963Z,101574.32
2019-02-21T13:10:18.652Z,101574.07
2019-02-21T13:12:47.311Z,101579.35
2019-02-21T13:15:16.302Z,101587.78
2019-02-21T13:17:44.931Z,101577.61
2019-02-21T13:20:14.721Z,101575.03
2019-02-21T13:22:43.287Z,101568.77
2019-02-21T13:25:14.503Z,101584.53
2019-02-21T13:27:46.089Z,101587.61
2019-02-21T13:30:16.738Z,101587.72
2019-02-21T13:32:45.314Z,101585.23
2019-02-21T13:35:14.301Z,101588.98
2019-02-21T13:37:42.954Z,101591.52
2019-02-21T13:40:15.863Z,101590.23
2019-02-21T13:42:44.593Z,101582.00
2019-02-21T13:45:17.566Z,101581.98
2019-02-21T13:47:45.334Z,101577.69
2019-02-21T13:50:18.694Z,101569.22
2019-02-21T13:52:47.363Z,101582.59
2019-02-21T13:55:15.928Z,101572.30
2019-02-21T13:57:44.427Z,101581.88
2019-02-21T14:00:24.088Z,101573.55
2019-02-21T14:02:52.641Z,101571.44
2019-02-21T14:05:21.134Z,101574.58
2019-02-21T14:07:49.597Z,101572.63
2019-02-21T14:10:18.415Z,101566.13
2019-02-21T14:12:46.898Z,101563.27
2019-02-21T14:15:24.761Z,101572.82
2019-02-21T14:17:53.350Z,101578.42
2019-02-21T14:20:22.062Z,101573.69
2019-02-21T14:22:50.654Z,101576.44
2019-02-21T14:25:19.178Z,101579.99
2019-02-21T14:27:47.695Z,101582.64
2019-02-21T14:30:18.364Z,101581.25
2019-02-21T14:32:46.913Z,101583.73
2019-02-21T14:35:16.616Z,101588.16
2019-02-21T14:37:45.089Z,101577.84
2019-02-21T14:40:17.610Z,101585.17
2019-02-21T14:42:46.175Z,101578.18
2019-02-21T14:45:19.802Z,101583.63
2019-02-21T14:47:48.397Z,101587.42
2019-02-21T14:50:17.331Z,101583.86
2019-02-21T14:52:46.124Z,101586.07
2019-02-21T14:55:17.654Z,101589.87
2019-02-21T14:57:46.258Z,101592.32
2019-02-21T15:00:22.772Z,101594.86
2019-02-21T15:02:51.574Z,101585.92
2019-02-21T15:05:20.630Z,101584.03
2019-02-21T15:07:49.163Z,101584.29
2019-02-21T15:10:18.002Z,101581.27
2019-02-21T15:12:46.737Z,101581.20
2019-02-21T15:15:17.570Z,101579.53
2019-02-21T15:17:46.164Z,101588.99
2019-02-21T15:20:16.326Z,101593.37
2019-02-21T15:22:44.913Z,101599.23
2019-02-21T15:25:13.672Z,101591.38
2019-02-21T15:27:42.308Z,101593.69
2019-02-21T15:30:16.647Z,101598.23
2019-02-21T15:32:45.238Z,101596.37
2019-02-21T15:35:14.126Z,101600.63
2019-02-21T15:37:44.881Z,101604.30
2019-02-21T15:40:13.497Z,101605.12
2019-02-21T15:42:42.109Z,101613.41
2019-02-21T15:45:23.617Z,101609.59
2019-02-21T15:47:50.169Z,101611.75
2019-02-21T15:50:19.874Z,101620.63
2019-02-21T15:52:49.347Z,101627.91
2019-02-21T15:55:19.538Z,101622.75
2019-02-21T15:57:48.022Z,101625.65
2019-02-21T16:00:18.909Z,101636.05
2019-02-21T16:02:47.571Z,101630.97
2019-02-21T16:05:16.264Z,101630.22
2019-02-21T16:07:44.822Z,101627.39
2019-02-21T16:10:16.153Z,101635.19
2019-02-21T16:12:45.191Z,101636.73
2019-02-21T16:15:16.356Z,101635.00
2019-02-21T16:17:44.663Z,101637.90
2019-02-21T16:20:17.570Z,101637.16
2019-02-21T16:22:46.760Z,101647.72
2019-02-21T16:25:17.822Z,101645.33
2019-02-21T16:27:46.373Z,101646.79
2019-02-21T16:30:15.520Z,101650.43
2019-02-21T16:32:44.085Z,101654.66
2019-02-21T16:35:14.182Z,101644.13
2019-02-21T16:37:42.878Z,101639.83
2019-02-21T16:40:13.690Z,101645.80
2019-02-21T16:42:42.261Z,101648.20
2019-02-21T16:45:12.982Z,101650.63
2019-02-21T16:47:41.821Z,101654.37
2019-02-21T16:50:12.643Z,101648.81
2019-02-21T16:52:41.238Z,101652.30
2019-02-21T16:55:15.612Z,101651.16
2019-02-21T16:57:45.075Z,101654.44
2019-02-21T17:00:20.838Z,101655.11
2019-02-21T17:02:49.666Z,101661.08
2019-02-21T17:05:18.315Z,101663.48
2019-02-21T17:07:46.856Z,101661.48
2019-02-21T17:10:18.197Z,101672.80
2019-02-21T17:12:46.724Z,101661.80
2019-02-21T17:15:19.082Z,101665.82
2019-02-21T17:17:47.711Z,101668.50
2019-02-21T17:20:18.047Z,101670.20
2019-02-21T17:22:46.688Z,101675.22
2019-02-21T17:25:16.134Z,101676.16
2019-02-21T17:27:46.635Z,101680.58
2019-02-21T17:30:16.725Z,101681.14
2019-02-21T17:32:45.473Z,101687.37
2019-02-21T17:35:14.708Z,101695.03
2019-02-21T17:37:43.271Z,101695.91
2019-02-21T17:40:17.083Z,101697.72
2019-02-21T17:42:45.838Z,101701.27
2019-02-21T17:45:14.594Z,101689.62
2019-02-21T17:47:43.222Z,101700.91
2019-02-21T17:50:14.173Z,101703.59
2019-02-21T17:52:42.907Z,101705.41
2019-02-21T17:55:12.704Z,101706.47
2019-02-21T17:57:41.436Z,101706.59
2019-02-21T18:00:25.567Z,101707.06
2019-02-21T18:02:54.189Z,101713.89
2019-02-21T18:05:22.904Z,101713.89
2019-02-21T18:07:51.609Z,101713.19
2019-02-21T18:10:20.633Z,101722.97
2019-02-21T18:12:50.472Z,101714.52
2019-02-21T18:15:19.484Z,101718.19
2019-02-21T18:17:48.368Z,101722.77
2019-02-21T18:20:17.095Z,101721.43
2019-02-21T18:22:45.783Z,101722.41
2019-02-21T18:25:26.936Z,101729.59
2019-02-21T18:27:55.603Z,101724.34
2019-02-21T18:30:24.235Z,101724.89
2019-02-21T18:32:52.875Z,101732.38
2019-02-21T18:35:21.539Z,101733.91
2019-02-21T18:37:50.173Z,101740.45
2019-02-21T18:40:21.467Z,101747.83
2019-02-21T18:42:50.191Z,101752.15
2019-02-21T18:45:18.903Z,101750.60
2019-02-21T18:47:47.529Z,101757.02
2019-02-21T18:50:16.342Z,101754.53
2019-02-21T18:52:44.887Z,101759.72
2019-02-21T18:55:13.664Z,101762.59
2019-02-21T18:57:42.410Z,101769.19
2019-02-21T19:00:20.156Z,101769.37
2019-02-21T19:02:48.786Z,101776.05
2019-02-21T19:05:17.465Z,101781.60
2019-02-21T19:07:46.166Z,101776.03
2019-02-21T19:10:19.674Z,101779.32
2019-02-21T19:12:48.390Z,101778.05
2019-02-21T19:15:18.986Z,101770.48
2019-02-21T19:17:47.835Z,101770.94
2019-02-21T19:20:18.009Z,101773.97
2019-02-21T19:22:46.767Z,101779.20
2019-02-21T19:25:15.598Z,101780.42
2019-02-21T19:27:44.376Z,101781.07
2019-02-21T19:30:28.209Z,101779.04
2019-02-21T19:32:56.844Z,101784.50
2019-02-21T19:35:25.710Z,101780.75
2019-02-21T19:37:54.371Z,101787.98
2019-02-21T19:40:24.821Z,101793.52
2019-02-21T19:42:56.682Z,101785.59
2019-02-21T19:45:26.992Z,101783.95
2019-02-21T19:47:55.701Z,101795.30
2019-02-21T19:50:24.788Z,101795.40
2019-02-21T19:52:53.572Z,101797.78
2019-02-21T19:55:22.259Z,101797.48
2019-02-21T19:57:50.841Z,101803.30
2019-02-21T20:00:25.944Z,101803.84
2019-02-21T20:02:55.315Z,101805.68
2019-02-21T20:05:24.221Z,101808.89
2019-02-21T20:07:52.956Z,101813.88
2019-02-21T20:10:21.712Z,101826.85
2019-02-21T20:12:50.490Z,101831.03
2019-02-21T20:15:19.780Z,101834.28
2019-02-21T20:17:48.486Z,101837.05
2019-02-21T20:20:19.753Z,101846.48
2019-02-21T20:22:48.448Z,101852.70
2019-02-21T20:25:17.179Z,101853.64
2019-02-21T20:27:45.835Z,101859.46
2019-02-21T20:30:18.748Z,101860.43
2019-02-21T20:32:47.497Z,101869.80
2019-02-21T20:35:16.125Z,101866.72
2019-02-21T20:37:44.792Z,101874.75
2019-02-21T20:40:13.687Z,101874.17
2019-02-21T20:42:42.351Z,101885.38
2019-02-21T20:45:15.023Z,101891.77
2019-02-21T20:47:43.723Z,101898.83
2019-02-21T20:50:14.022Z,101890.03
2019-02-21T20:52:42.777Z,101892.70
2019-02-21T20:55:12.419Z,101898.52
2019-02-21T20:57:41.086Z,101901.66
2019-02-21T21:00:15.633Z,101903.00
2019-02-21T21:02:44.900Z,101908.82
2019-02-21T21:05:19.822Z,101903.97
2019-02-21T21:07:48.431Z,101897.28
2019-02-21T21:10:17.743Z,101906.24
2019-02-21T21:12:46.281Z,101908.05
2019-02-21T21:15:15.453Z,101918.84
2019-02-21T21:17:44.135Z,101918.84
2019-02-21T21:20:17.106Z,101925.13
2019-02-21T21:22:44.288Z,101923.89
2019-02-21T21:25:15.970Z,101920.72
2019-02-21T21:27:44.658Z,101926.94
2019-02-21T21:30:15.802Z,101926.56
2019-02-21T21:32:44.451Z,101923.39
2019-02-21T21:35:13.050Z,101913.66
2019-02-21T21:37:41.715Z,101916.89
2019-02-21T21:40:17.799Z,101920.50
2019-02-21T21:42:46.518Z,101923.18
2019-02-21T21:45:17.421Z,101928.22
2019-02-21T21:47:46.175Z,101926.02
2019-02-21T21:50:17.728Z,101933.11
2019-02-21T21:52:46.558Z,101929.56
2019-02-21T21:55:15.279Z,101929.25
2019-02-21T21:57:44.029Z,101931.52
2019-02-21T22:00:18.257Z,101939.95
2019-02-21T22:02:46.835Z,101936.41
2019-02-21T22:05:15.517Z,101939.17
2019-02-21T22:07:44.192Z,101942.22
2019-02-21T22:10:13.701Z,101942.22
2019-02-21T22:12:42.327Z,101947.97
2019-02-21T22:15:22.376Z,101957.34
2019-02-21T22:17:50.929Z,101954.66
2019-02-21T22:20:19.507Z,101953.33
2019-02-21T22:22:48.148Z,101956.94
2019-02-21T22:25:16.738Z,101963.72
2019-02-21T22:27:45.473Z,101965.92
2019-02-21T22:30:20.772Z,101974.79
2019-02-21T22:32:49.453Z,101978.48
2019-02-21T22:35:18.041Z,101975.81
2019-02-21T22:37:46.592Z,101967.79
2019-02-21T22:40:20.043Z,101969.59
2019-02-21T22:42:48.673Z,101967.42
2019-02-21T22:45:17.260Z,101967.02
2019-02-21T22:47:45.765Z,101963.94
2019-02-21T22:50:16.057Z,101967.48
2019-02-21T22:52:44.673Z,101962.59
2019-02-21T22:55:13.444Z,101970.25
2019-02-21T22:57:42.240Z,101967.58
2019-02-21T23:00:36.657Z,101972.92
2019-02-21T23:03:09.005Z,101976.47
2019-02-21T23:06:02.961Z,101977.00
2019-02-21T23:08:45.110Z,101984.15
2019-02-21T23:11:13.754Z,101983.31
2019-02-21T23:13:42.741Z,101991.39
2019-02-21T23:16:11.431Z,101989.91
2019-02-21T23:18:40.784Z,101987.07
2019-02-21T23:21:09.487Z,101988.16
2019-02-21T23:23:38.117Z,101993.51
2019-02-21T23:26:06.649Z,101993.91
2019-02-21T23:28:35.265Z,101996.59
2019-02-21T23:31:03.941Z,101997.92
2019-02-21T23:33:34.399Z,101991.70
2019-02-21T23:36:03.070Z,101998.39
2019-02-21T23:38:32.054Z,102001.16
2019-02-21T23:41:00.527Z,102001.94
2019-02-21T23:43:29.154Z,101995.25
2019-02-21T23:45:58.045Z,101992.17
2019-02-21T23:48:26.599Z,101999.83
2019-02-21T23:50:55.208Z,102002.87
2019-02-21T23:53:23.724Z,102019.42
2019-02-21T23:55:52.263Z,102014.06
2019-02-21T23:58:20.790Z,102012.23
